createdAt,value
2022-12-01T00:02:12.014Z,100.00
2022-12-01T00:05:07.985Z,100.00
2022-12-01T00:07:59.591Z,100.00
2022-12-01T00:10:36.973Z,100.00
2022-12-01T00:13:20.062Z,100.00
2022-12-01T00:16:23.869Z,100.00
2022-12-01T00:19:01.617Z,100.00
2022-12-01T00:21:43.175Z,100.00
2022-12-01T00:24:27.290Z,100.00
2022-12-01T00:27:06.287Z,100.00
2022-12-01T00:29:47.311Z,100.00
2022-12-01T00:32:31.297Z,100.00
2022-12-01T00:35:17.378Z,100.00
2022-12-01T00:38:11.981Z,100.00
2022-12-01T00:41:02.738Z,100.00
2022-12-01T00:43:43.866Z,100.00
2022-12-01T00:46:29.881Z,100.00
2022-12-01T00:49:15.871Z,100.00
2022-12-01T00:51:59.291Z,100.00
2022-12-01T00:54:46.538Z,100.00
2022-12-01T00:57:31.956Z,100.00
2022-12-01T01:00:16.116Z,100.00
2022-12-01T01:02:59.410Z,100.00
2022-12-01T01:05:43.688Z,100.00
2022-12-01T01:08:29.950Z,100.00
2022-12-01T01:11:11.248Z,100.00
2022-12-01T01:13:49.703Z,100.00
2022-12-01T01:16:28.017Z,100.00
2022-12-01T01:19:11.761Z,100.00
2022-12-01T01:22:00.908Z,100.00
2022-12-01T01:24:50.231Z,100.00
2022-12-01T01:27:29.412Z,100.00
2022-12-01T01:30:10.335Z,100.00
2022-12-01T01:32:45.345Z,100.00
2022-12-01T01:35:26.155Z,100.00
2022-12-01T01:38:12.356Z,100.00
2022-12-01T01:41:08.123Z,100.00
2022-12-01T01:44:00.660Z,100.00
2022-12-01T01:46:39.273Z,100.00
2022-12-01T01:49:21.375Z,100.00
2022-12-01T01:52:03.890Z,100.00
2022-12-01T01:54:48.457Z,100.00
2022-12-01T01:57:33.429Z,100.00
2022-12-01T02:00:31.903Z,100.00
2022-12-01T02:03:12.255Z,100.00
2022-12-01T02:05:53.537Z,100.00
2022-12-01T02:08:34.211Z,100.00
2022-12-01T02:12:09.830Z,100.00
2022-12-01T02:15:15.611Z,100.00
2022-12-01T02:18:19.691Z,100.00
2022-12-01T02:21:17.919Z,100.00
2022-12-01T02:24:46.825Z,100.00
2022-12-01T02:27:54.915Z,100.00
2022-12-01T02:30:47.183Z,100.00
2022-12-01T02:33:51.576Z,100.00
2022-12-01T02:36:48.880Z,100.00
2022-12-01T02:39:34.033Z,100.00
2022-12-01T02:42:38.767Z,100.00
2022-12-01T02:45:23.346Z,100.00
2022-12-01T02:48:05.765Z,100.00
2022-12-01T02:50:51.584Z,100.00
2022-12-01T02:53:31.704Z,100.00
2022-12-01T02:56:26.242Z,100.00
2022-12-01T02:59:00.878Z,100.00
2022-12-01T03:01:55.821Z,100.00
2022-12-01T03:05:05.157Z,100.00
2022-12-01T03:07:59.017Z,100.00
2022-12-01T03:10:59.638Z,100.00
2022-12-01T03:13:45.452Z,100.00
2022-12-01T03:16:59.243Z,100.00
2022-12-01T03:19:50.769Z,100.00
2022-12-01T03:22:44.738Z,100.00
2022-12-01T03:25:30.063Z,100.00
2022-12-01T03:28:21.133Z,100.00
2022-12-01T03:31:03.557Z,100.00
2022-12-01T03:33:55.634Z,100.00
2022-12-01T03:36:53.933Z,100.00
2022-12-01T03:39:36.614Z,100.00
2022-12-01T03:42:48.753Z,100.00
2022-12-01T03:45:44.026Z,100.00
2022-12-01T03:48:27.390Z,100.00
2022-12-01T03:51:17.743Z,100.00
2022-12-01T03:54:02.413Z,100.00
2022-12-01T03:56:52.447Z,100.00
2022-12-01T03:59:30.538Z,100.00
2022-12-01T04:02:05.456Z,100.00
2022-12-01T04:04:43.977Z,100.00
2022-12-01T04:07:25.127Z,100.00
2022-12-01T04:10:05.630Z,100.00
2022-12-01T04:12:52.709Z,100.00
2022-12-01T04:15:33.191Z,100.00
2022-12-01T04:18:10.818Z,100.00
2022-12-01T04:20:59.346Z,100.00
2022-12-01T04:24:00.845Z,100.00
2022-12-01T04:26:46.138Z,100.00
2022-12-01T04:29:32.312Z,100.00
2022-12-01T04:32:14.663Z,100.00
2022-12-01T04:34:54.883Z,100.00
2022-12-01T04:37:41.029Z,100.00
2022-12-01T04:40:28.465Z,100.00
2022-12-01T04:43:20.067Z,100.00
2022-12-01T04:46:03.405Z,100.00
2022-12-01T04:48:55.026Z,100.00
2022-12-01T04:51:36.421Z,100.00
2022-12-01T04:54:03.776Z,100.00
2022-12-01T04:56:35.525Z,100.00
2022-12-01T04:59:16.486Z,100.00
2022-12-01T05:01:57.710Z,100.00
2022-12-01T05:04:38.925Z,100.00
2022-12-01T05:07:22.097Z,100.00
2022-12-01T05:10:05.460Z,100.00
2022-12-01T05:12:52.003Z,100.00
2022-12-01T05:15:33.794Z,100.00
2022-12-01T05:18:11.799Z,100.00
2022-12-01T05:21:03.949Z,100.00
2022-12-01T05:23:47.675Z,100.00
2022-12-01T05:26:27.945Z,100.00
2022-12-01T05:29:13.843Z,100.00
2022-12-01T05:31:56.414Z,100.00
2022-12-01T05:34:37.322Z,100.00
2022-12-01T05:37:24.600Z,100.00
2022-12-01T05:40:02.820Z,100.00
2022-12-01T05:42:33.551Z,100.00
2022-12-01T05:45:22.527Z,100.00
2022-12-01T05:48:03.443Z,100.00
2022-12-01T05:50:47.829Z,100.00
2022-12-01T05:53:28.886Z,100.00
2022-12-01T05:56:10.539Z,100.00
2022-12-01T05:58:59.586Z,100.00
2022-12-01T06:01:44.212Z,100.00
2022-12-01T06:04:27.939Z,100.00
2022-12-01T06:07:03.516Z,100.00
2022-12-01T06:09:51.927Z,100.00
2022-12-01T06:12:32.869Z,100.00
2022-12-01T06:15:19.785Z,100.00
2022-12-01T06:18:00.136Z,100.00
2022-12-01T06:20:44.389Z,100.00
2022-12-01T06:23:35.708Z,100.00
2022-12-01T06:26:18.644Z,100.00
2022-12-01T06:29:07.115Z,100.00
2022-12-01T06:31:58.783Z,100.00
2022-12-01T06:34:43.888Z,100.00
2022-12-01T06:37:32.420Z,100.00
2022-12-01T06:40:21.844Z,100.00
2022-12-01T06:43:10.477Z,100.00
2022-12-01T06:45:57.926Z,100.00
2022-12-01T06:48:42.581Z,100.00
2022-12-01T06:51:12.420Z,100.00
2022-12-01T06:53:53.130Z,100.00
2022-12-01T06:56:37.196Z,100.00
2022-12-01T06:59:18.362Z,100.00
2022-12-01T07:01:58.401Z,100.00
2022-12-01T07:04:39.695Z,100.00
2022-12-01T07:07:17.508Z,100.00
2022-12-01T07:10:03.800Z,100.00
2022-12-01T07:12:53.379Z,100.00
2022-12-01T07:15:34.577Z,100.00
2022-12-01T07:18:14.737Z,100.00
2022-12-01T07:21:08.064Z,100.00
2022-12-01T07:23:39.748Z,100.00
2022-12-01T07:26:45.035Z,100.00
2022-12-01T07:29:37.133Z,100.00
2022-12-01T07:32:21.381Z,100.00
2022-12-01T07:35:02.059Z,100.00
2022-12-01T07:37:45.380Z,100.00
2022-12-01T07:40:26.488Z,100.00
2022-12-01T07:43:12.436Z,100.00
2022-12-01T07:46:09.459Z,100.00
2022-12-01T07:48:53.130Z,100.00
2022-12-01T07:51:31.444Z,100.00
2022-12-01T07:54:26.409Z,100.00
2022-12-01T07:57:05.450Z,100.00
2022-12-01T07:59:46.615Z,100.00
2022-12-01T08:02:33.425Z,100.00
2022-12-01T08:05:17.011Z,100.00
2022-12-01T08:08:05.681Z,100.00
2022-12-01T08:10:48.723Z,100.00
2022-12-01T08:13:37.388Z,100.00
2022-12-01T08:16:18.823Z,100.00
2022-12-01T08:19:05.353Z,100.00
2022-12-01T08:21:46.259Z,100.00
2022-12-01T08:24:28.966Z,100.00
2022-12-01T08:27:19.816Z,100.00
2022-12-01T08:29:57.513Z,100.00
2022-12-01T08:32:40.612Z,100.00
2022-12-01T08:35:21.010Z,100.00
2022-12-01T08:38:10.374Z,100.00
2022-12-01T08:40:42.810Z,100.00
2022-12-01T08:46:40.544Z,100.00
2022-12-01T08:49:17.898Z,100.00
2022-12-01T08:52:14.291Z,100.00
2022-12-01T08:55:01.440Z,100.00
2022-12-01T08:57:43.382Z,100.00
2022-12-01T09:00:30.879Z,100.00
2022-12-01T09:03:13.982Z,100.00
2022-12-01T09:05:49.024Z,100.00
2022-12-01T09:08:37.555Z,100.00
2022-12-01T09:11:22.452Z,100.00
2022-12-01T09:14:17.746Z,100.00
2022-12-01T09:17:12.370Z,100.00
2022-12-01T09:19:53.449Z,100.00
2022-12-01T09:22:39.299Z,100.00
2022-12-01T09:25:30.918Z,100.00
2022-12-01T09:28:14.370Z,100.00
2022-12-01T09:30:58.708Z,100.00
2022-12-01T09:33:36.699Z,100.00
2022-12-01T09:36:15.628Z,100.00
2022-12-01T09:38:55.978Z,100.00
2022-12-01T09:41:53.065Z,100.00
2022-12-01T09:44:48.373Z,100.00
2022-12-01T09:47:44.257Z,100.00
2022-12-01T09:50:30.039Z,100.00
2022-12-01T09:53:12.413Z,100.00
2022-12-01T09:56:03.151Z,100.00
2022-12-01T09:58:53.912Z,100.00
2022-12-01T10:01:41.422Z,100.00
2022-12-01T10:04:35.116Z,100.00
2022-12-01T10:07:30.929Z,100.00
2022-12-01T10:10:26.422Z,100.00
2022-12-01T10:13:07.676Z,100.00
2022-12-01T10:16:21.232Z,100.00
2022-12-01T10:19:25.372Z,100.00
2022-12-01T10:22:57.506Z,100.00
2022-12-01T10:26:10.442Z,100.00
2022-12-01T10:29:14.002Z,100.00
2022-12-01T10:32:05.924Z,100.00
2022-12-01T10:34:45.467Z,100.00
2022-12-01T10:37:30.389Z,100.00
2022-12-01T10:40:18.411Z,100.00
2022-12-01T10:43:00.383Z,100.00
2022-12-01T10:45:49.490Z,100.00
2022-12-01T10:48:38.041Z,100.00
2022-12-01T10:51:22.660Z,100.00
2022-12-01T10:54:17.250Z,100.00
2022-12-01T10:56:58.691Z,98.43
2022-12-01T10:59:57.427Z,100.00
2022-12-01T11:02:37.223Z,100.00
2022-12-01T11:05:32.023Z,100.00
2022-12-01T11:08:26.983Z,99.77
2022-12-01T11:11:24.140Z,97.25
2022-12-01T11:14:12.472Z,97.71
2022-12-01T11:16:57.199Z,97.19
2022-12-01T11:19:45.790Z,94.61
2022-12-01T11:22:34.709Z,91.36
2022-12-01T11:25:26.980Z,88.02
2022-12-01T11:28:25.992Z,92.16
2022-12-01T11:31:14.438Z,89.02
2022-12-01T11:34:00.328Z,91.75
2022-12-01T11:36:53.490Z,87.08
2022-12-01T11:39:52.622Z,87.14
2022-12-01T11:42:45.392Z,86.30
2022-12-01T11:45:43.300Z,85.41
2022-12-01T11:48:42.523Z,86.20
2022-12-01T11:51:28.508Z,83.63
2022-12-01T11:54:25.263Z,82.25
2022-12-01T11:57:32.332Z,86.10
2022-12-01T12:00:26.082Z,82.70
2022-12-01T12:03:30.501Z,84.09
2022-12-01T12:06:39.573Z,81.48
2022-12-01T12:09:45.786Z,81.24
2022-12-01T12:12:54.474Z,85.08
2022-12-01T12:16:05.207Z,80.16
2022-12-01T12:19:12.320Z,79.36
2022-12-01T12:22:18.503Z,80.18
2022-12-01T12:25:29.779Z,78.82
2022-12-01T12:28:40.340Z,78.61
2022-12-01T12:31:34.042Z,82.47
2022-12-01T12:34:37.269Z,79.43
2022-12-01T12:37:21.522Z,78.40
2022-12-01T12:40:22.096Z,77.64
2022-12-01T12:43:09.509Z,77.24
2022-12-01T12:46:13.865Z,80.33
2022-12-01T12:49:22.390Z,79.14
2022-12-01T12:52:08.347Z,80.58
2022-12-01T12:55:16.578Z,78.41
2022-12-01T12:58:11.053Z,77.81
2022-12-01T13:00:52.744Z,82.37
2022-12-01T13:03:46.091Z,78.11
2022-12-01T13:06:35.667Z,78.62
2022-12-01T13:09:35.989Z,80.75
2022-12-01T13:12:58.339Z,78.92
2022-12-01T13:15:43.616Z,78.78
2022-12-01T13:18:53.352Z,78.71
2022-12-01T13:21:34.691Z,79.35
2022-12-01T13:24:25.704Z,76.41
2022-12-01T13:27:34.639Z,78.44
2022-12-01T13:30:31.361Z,78.99
2022-12-01T13:33:31.064Z,77.81
2022-12-01T13:36:56.191Z,79.45
2022-12-01T13:39:42.694Z,80.65
2022-12-01T13:42:36.892Z,82.51
2022-12-01T13:45:22.279Z,80.45
2022-12-01T13:48:22.648Z,81.38
2022-12-01T13:51:12.075Z,81.91
2022-12-01T13:54:17.508Z,80.88
2022-12-01T13:57:09.317Z,79.95
2022-12-01T14:00:14.598Z,81.43
2022-12-01T14:03:39.192Z,82.37
2022-12-01T14:06:58.790Z,82.89
2022-12-01T14:09:46.775Z,84.17
2022-12-01T14:12:37.392Z,85.27
2022-12-01T14:15:42.301Z,87.26
2022-12-01T14:18:58.370Z,88.88
2022-12-01T14:21:54.914Z,93.85
2022-12-01T14:24:38.174Z,95.41
2022-12-01T14:27:38.080Z,97.31
2022-12-01T14:30:50.044Z,99.48
2022-12-01T14:33:54.104Z,100.00
2022-12-01T14:36:52.402Z,100.00
2022-12-01T14:39:30.464Z,100.00
2022-12-01T14:42:45.288Z,100.00
2022-12-01T14:45:28.531Z,100.00
2022-12-01T14:48:50.988Z,100.00
2022-12-01T14:51:41.841Z,100.00
2022-12-01T14:54:31.918Z,100.00
2022-12-01T14:57:15.136Z,100.00
2022-12-01T15:00:12.911Z,100.00
2022-12-01T15:02:55.856Z,100.00
2022-12-01T15:05:40.320Z,100.00
2022-12-01T15:11:33.996Z,100.00
2022-12-01T15:14:30.336Z,100.00
2022-12-01T15:17:34.531Z,100.00
2022-12-01T15:20:46.336Z,100.00
2022-12-01T15:23:33.783Z,100.00
2022-12-01T15:26:24.610Z,100.00
2022-12-01T15:29:31.230Z,100.00
2022-12-01T15:32:08.250Z,100.00
2022-12-01T15:34:56.704Z,100.00
2022-12-01T15:37:49.016Z,100.00
2022-12-01T15:43:58.584Z,100.00
2022-12-01T15:46:45.339Z,100.00
2022-12-01T15:49:41.857Z,100.00
2022-12-01T15:52:22.280Z,100.00
2022-12-01T15:55:06.896Z,100.00
2022-12-01T15:57:49.346Z,100.00
2022-12-01T16:00:30.651Z,100.00
2022-12-01T16:03:11.952Z,100.00
2022-12-01T16:06:00.588Z,100.00
2022-12-01T16:08:43.124Z,100.00
2022-12-01T16:11:22.377Z,100.00
2022-12-01T16:14:31.732Z,100.00
2022-12-01T16:17:17.108Z,100.00
2022-12-01T16:20:25.930Z,100.00
2022-12-01T16:23:19.450Z,100.00
2022-12-01T16:26:01.849Z,100.00
2022-12-01T16:28:57.168Z,100.00
2022-12-01T16:32:12.702Z,100.00
2022-12-01T16:34:50.383Z,100.00
2022-12-01T16:37:32.351Z,100.00
2022-12-01T16:40:19.918Z,100.00
2022-12-01T16:43:04.545Z,100.00
2022-12-01T16:46:12.238Z,100.00
2022-12-01T16:48:50.476Z,100.00
2022-12-01T16:51:54.147Z,100.00
2022-12-01T16:54:39.980Z,100.00
2022-12-01T16:57:17.967Z,100.00
2022-12-01T17:00:01.943Z,100.00
2022-12-01T17:02:39.446Z,100.00
2022-12-01T17:05:31.105Z,100.00
2022-12-01T17:08:17.620Z,100.00
2022-12-01T17:10:58.683Z,100.00
2022-12-01T17:13:39.331Z,100.00
2022-12-01T17:16:26.248Z,100.00
2022-12-01T17:19:17.177Z,100.00
2022-12-01T17:22:00.104Z,100.00
2022-12-01T17:24:53.951Z,100.00
2022-12-01T17:27:34.450Z,100.00
2022-12-01T17:30:19.797Z,100.00
2022-12-01T17:33:01.322Z,100.00
2022-12-01T17:35:49.922Z,100.00
2022-12-01T17:38:41.954Z,100.00
2022-12-01T17:41:35.755Z,100.00
2022-12-01T17:44:11.324Z,100.00
2022-12-01T17:46:49.620Z,100.00
2022-12-01T17:49:31.784Z,100.00
2022-12-01T17:52:17.536Z,100.00
2022-12-01T17:55:01.717Z,100.00
2022-12-01T17:57:47.740Z,100.00
2022-12-01T18:00:34.713Z,100.00
2022-12-01T18:03:18.401Z,100.00
2022-12-01T18:06:18.987Z,100.00
2022-12-01T18:08:59.178Z,100.00
2022-12-01T18:11:43.145Z,100.00
2022-12-01T18:14:26.183Z,100.00
2022-12-01T18:17:12.240Z,100.00
2022-12-01T18:19:52.016Z,100.00
2022-12-01T18:22:36.637Z,100.00
2022-12-01T18:25:13.516Z,100.00
2022-12-01T18:28:03.300Z,100.00
2022-12-01T18:30:49.718Z,100.00
2022-12-01T18:33:33.161Z,100.00
2022-12-01T18:36:17.453Z,100.00
2022-12-01T18:39:11.266Z,100.00
2022-12-01T18:41:49.323Z,100.00
2022-12-01T18:44:32.855Z,100.00
2022-12-01T18:47:14.147Z,100.00
2022-12-01T18:49:58.722Z,100.00
2022-12-01T18:52:42.597Z,100.00
2022-12-01T18:55:24.488Z,100.00
2022-12-01T18:58:14.368Z,100.00
2022-12-01T19:01:07.457Z,100.00
2022-12-01T19:03:46.918Z,100.00
2022-12-01T19:06:23.124Z,100.00
2022-12-01T19:09:17.345Z,100.00
2022-12-01T19:12:00.766Z,100.00
2022-12-01T19:14:41.272Z,100.00
2022-12-01T19:17:33.348Z,100.00
2022-12-01T19:20:12.219Z,100.00
2022-12-01T19:23:05.090Z,100.00
2022-12-01T19:25:50.235Z,100.00
2022-12-01T19:28:34.330Z,100.00
2022-12-01T19:31:22.867Z,100.00
2022-12-01T19:34:07.412Z,100.00
2022-12-01T19:36:52.429Z,100.00
2022-12-01T19:39:48.864Z,100.00
2022-12-01T19:42:30.625Z,100.00
2022-12-01T19:45:17.506Z,100.00
2022-12-01T19:48:08.178Z,100.00
2022-12-01T19:50:47.347Z,100.00
2022-12-01T19:53:33.921Z,100.00
2022-12-01T19:56:19.334Z,100.00
2022-12-01T19:58:56.744Z,100.00
2022-12-01T20:01:39.323Z,100.00
2022-12-01T20:04:26.796Z,100.00
2022-12-01T20:07:05.519Z,100.00
2022-12-01T20:09:48.350Z,100.00
2022-12-01T20:12:36.461Z,100.00
2022-12-01T20:15:28.155Z,100.00
2022-12-01T20:18:12.690Z,100.00
2022-12-01T20:20:53.657Z,100.00
2022-12-01T20:23:51.678Z,100.00
2022-12-01T20:26:35.460Z,100.00
2022-12-01T20:29:19.551Z,100.00
2022-12-01T20:32:06.770Z,100.00
2022-12-01T20:34:41.565Z,100.00
2022-12-01T20:37:17.413Z,100.00
2022-12-01T20:39:59.550Z,100.00
2022-12-01T20:42:34.736Z,100.00
2022-12-01T20:45:17.716Z,100.00
2022-12-01T20:48:14.670Z,100.00
2022-12-01T20:50:55.041Z,100.00
2022-12-01T20:53:59.632Z,100.00
2022-12-01T20:56:48.133Z,100.00
2022-12-01T20:59:27.335Z,100.00
2022-12-01T21:02:06.155Z,100.00
2022-12-01T21:04:56.316Z,100.00
2022-12-01T21:07:49.527Z,100.00
2022-12-01T21:10:37.779Z,100.00
2022-12-01T21:13:42.510Z,100.00
2022-12-01T21:16:30.103Z,100.00
2022-12-01T21:19:19.987Z,100.00
2022-12-01T21:22:05.054Z,100.00
2022-12-01T21:24:54.495Z,100.00
2022-12-01T21:27:35.284Z,100.00
2022-12-01T21:30:21.922Z,100.00
2022-12-01T21:36:00.716Z,100.00
2022-12-01T21:38:49.892Z,100.00
2022-12-01T21:41:38.784Z,100.00
2022-12-01T21:44:24.976Z,100.00
2022-12-01T21:47:15.422Z,100.00
2022-12-01T21:50:00.628Z,100.00
2022-12-01T21:52:48.123Z,100.00
2022-12-01T21:55:48.521Z,100.00
2022-12-01T21:58:35.228Z,100.00
2022-12-01T22:01:37.190Z,100.00
2022-12-01T22:04:33.018Z,100.00
2022-12-01T22:07:10.315Z,100.00
2022-12-01T22:09:47.736Z,100.00
2022-12-01T22:12:32.713Z,100.00
2022-12-01T22:15:53.960Z,100.00
2022-12-01T22:18:47.636Z,100.00
2022-12-01T22:22:15.806Z,100.00
2022-12-01T22:25:25.310Z,100.00
2022-12-01T22:28:12.253Z,100.00
2022-12-01T22:31:00.211Z,100.00
2022-12-01T22:33:46.892Z,100.00
2022-12-01T22:36:38.974Z,100.00
2022-12-01T22:39:35.338Z,100.00
2022-12-01T22:42:20.033Z,100.00
2022-12-01T22:44:57.250Z,100.00
2022-12-01T22:47:46.638Z,100.00
2022-12-01T22:50:37.411Z,100.00
2022-12-01T22:53:18.194Z,100.00
2022-12-01T22:56:01.227Z,100.00
2022-12-01T22:58:41.039Z,100.00
2022-12-01T23:01:27.335Z,100.00
2022-12-01T23:04:42.276Z,100.00
2022-12-01T23:08:05.290Z,100.00
2022-12-01T23:10:46.308Z,100.00
2022-12-01T23:14:00.358Z,100.00
2022-12-01T23:16:43.391Z,100.00
2022-12-01T23:19:21.090Z,100.00
2022-12-01T23:22:11.953Z,100.00
2022-12-01T23:24:57.499Z,100.00
2022-12-01T23:27:40.964Z,100.00
2022-12-01T23:30:27.788Z,100.00
2022-12-01T23:33:42.324Z,100.00
2022-12-01T23:36:33.291Z,100.00
2022-12-01T23:39:24.940Z,100.00
2022-12-01T23:42:11.239Z,100.00
2022-12-01T23:44:58.046Z,100.00
2022-12-01T23:47:33.621Z,100.00
2022-12-01T23:50:19.104Z,100.00
2022-12-01T23:52:59.814Z,100.00
2022-12-01T23:55:43.296Z,100.00
2022-12-01T23:58:21.387Z,100.00
